Time;durP1;ratioP1;P1;durP2;ratioP2;P2;SDS_P1;SDS_P2;PMS_P1;PMS_P2;Temp;Humidity;BMP_temperature;BMP_pressure;BME280_temperature;BME280_humidity;BME280_pressure;Samples;Min_cycle;Max_cycle;Signal;HPM_P1;HPM_P2
2023/01/28 00:01:21;;;;;;;2.97;2.77;;;16.10;60.10;;;;;;5088956;28;20189;-45
2023/01/28 00:03:51;;;;;;;2.70;2.50;;;16.10;60.10;;;;;;5085493;28;20220;-45
2023/01/28 00:06:21;;;;;;;2.93;2.53;;;16.10;60.20;;;;;;5076581;28;20181;-45
2023/01/28 00:08:48;;;;;;;3.20;2.60;;;16.10;60.30;;;;;;5086494;28;20646;-45
2023/01/28 00:11:17;;;;;;;3.97;3.30;;;16.10;60.30;;;;;;5089813;28;20703;-44
2023/01/28 00:13:53;;;;;;;2.83;2.63;;;16.00;60.20;;;;;;5082831;28;20217;-45
2023/01/28 00:16:21;;;;;;;3.30;3.00;;;16.00;60.10;;;;;;5079563;28;20200;-45
2023/01/28 00:18:51;;;;;;;4.97;2.93;;;16.00;60.10;;;;;;5085164;28;20626;-45
2023/01/28 00:21:33;;;;;;;3.50;3.20;;;16.00;60.20;;;;;;5081098;28;20224;-45
2023/01/28 00:24:05;;;;;;;2.87;2.67;;;16.00;60.40;;;;;;5084626;28;20203;-45
2023/01/28 00:26:37;;;;;;;3.10;2.90;;;16.00;60.20;;;;;;5080048;28;20780;-45
2023/01/28 00:29:07;;;;;;;2.97;2.77;;;15.90;60.30;;;;;;5091472;28;20752;-45
2023/01/28 00:31:40;;;;;;;3.07;2.87;;;15.90;60.30;;;;;;5069659;28;20800;-45
2023/01/28 00:34:11;;;;;;;3.20;2.90;;;15.90;60.30;;;;;;5086622;28;20285;-45
2023/01/28 00:36:41;;;;;;;3.40;3.00;;;15.90;60.30;;;;;;5087155;28;20197;-45
2023/01/28 00:39:16;;;;;;;3.60;3.10;;;15.90;60.50;;;;;;5086844;28;20213;-45
2023/01/28 00:41:47;;;;;;;3.00;2.77;;;15.90;60.40;;;;;;5069058;28;20188;-45
2023/01/28 00:44:19;;;;;;;3.90;3.00;;;15.90;60.50;;;;;;5083401;28;20367;-45
2023/01/28 00:46:51;;;;;;;3.17;2.70;;;15.90;60.50;;;;;;5075667;28;20205;-45
2023/01/28 00:49:23;;;;;;;2.90;2.70;;;15.90;60.50;;;;;;5086241;28;20189;-45
2023/01/28 00:51:54;;;;;;;3.13;2.80;;;15.80;60.60;;;;;;5082864;28;20220;-45
2023/01/28 00:54:26;;;;;;;3.13;2.93;;;15.80;60.50;;;;;;5087459;28;20549;-45
2023/01/28 00:56:58;;;;;;;4.30;2.90;;;15.80;60.50;;;;;;5088036;28;20196;-45
2023/01/28 00:59:28;;;;;;;3.13;2.83;;;15.80;60.60;;;;;;5085787;28;20204;-45
2023/01/28 01:02:11;;;;;;;3.43;2.23;;;15.80;60.70;;;;;;5088281;28;20697;-45
2023/01/28 01:04:40;;;;;;;2.80;2.60;;;15.80;60.70;;;;;;5081210;28;20649;-45
2023/01/28 01:07:13;;;;;;;3.00;2.80;;;15.70;60.70;;;;;;5068844;28;20645;-45
2023/01/28 01:09:45;;;;;;;3.10;2.80;;;15.80;60.70;;;;;;5070434;28;20205;-45
2023/01/28 01:12:14;;;;;;;4.63;3.00;;;15.80;60.70;;;;;;5085752;28;20584;-45
2023/01/28 01:14:42;;;;;;;2.67;2.47;;;15.80;60.80;;;;;;5083825;28;20228;-45
2023/01/28 01:17:13;;;;;;;3.00;2.70;;;15.70;60.80;;;;;;5087879;28;20197;-45
2023/01/28 01:19:43;;;;;;;3.10;2.60;;;15.70;60.70;;;;;;5086867;28;20201;-45
2023/01/28 01:22:17;;;;;;;3.53;2.63;;;15.80;60.80;;;;;;5087043;28;20208;-45
2023/01/28 01:24:47;;;;;;;3.47;2.63;;;15.70;60.80;;;;;;5088556;28;20216;-45
2023/01/28 01:27:15;;;;;;;3.40;2.90;;;15.70;61.00;;;;;;5063568;28;20701;-45
2023/01/28 01:29:46;;;;;;;3.33;2.60;;;15.70;60.90;;;;;;5104172;28;20255;-45
2023/01/28 01:32:17;;;;;;;2.63;2.43;;;15.70;61.00;;;;;;5103286;28;20208;-45
2023/01/28 01:34:47;;;;;;;3.17;2.90;;;15.70;60.90;;;;;;5102591;28;20204;-45
2023/01/28 01:37:17;;;;;;;5.33;3.10;;;15.70;61.00;;;;;;5088475;28;20234;-45
2023/01/28 01:39:48;;;;;;;2.93;2.67;;;15.70;61.00;;;;;;5104255;28;20208;-45
2023/01/28 01:42:18;;;;;;;3.37;3.07;;;15.60;61.00;;;;;;5102434;28;20207;-45
2023/01/28 01:45:12;;;;;;;2.70;2.50;;;15.70;61.00;;;;;;5106305;28;20641;-45
2023/01/28 01:47:51;;;;;;;3.27;2.80;;;15.70;61.10;;;;;;5089172;28;20200;-45
2023/01/28 01:50:25;;;;;;;3.00;2.70;;;15.70;61.10;;;;;;5094540;28;20538;-45
2023/01/28 01:53:17;;;;;;;2.93;2.60;;;15.60;61.10;;;;;;5106482;28;20224;-45
2023/01/28 01:56:01;;;;;;;2.93;2.33;;;15.70;61.20;;;;;;5088931;28;20181;-45
2023/01/28 01:58:32;;;;;;;2.73;2.53;;;15.60;61.10;;;;;;5106480;27;20214;-45
2023/01/28 02:01:03;;;;;;;2.80;2.60;;;15.60;61.20;;;;;;5092736;28;20245;-45
2023/01/28 02:03:53;;;;;;;3.30;3.00;;;15.60;61.20;;;;;;5084359;28;20574;-44
2023/01/28 02:06:22;;;;;;;3.10;2.80;;;15.60;61.30;;;;;;5109151;27;20224;-45
2023/01/28 02:08:54;;;;;;;2.90;2.70;;;15.60;61.30;;;;;;5113698;27;20211;-45
2023/01/28 02:11:30;;;;;;;3.03;2.73;;;15.60;61.40;;;;;;5103354;28;20201;-45
2023/01/28 02:14:13;;;;;;;2.97;2.77;;;15.60;61.40;;;;;;5091496;28;20239;-45
2023/01/28 02:16:58;;;;;;;3.60;2.70;;;15.60;61.40;;;;;;5109435;27;20229;-45
2023/01/28 02:19:31;;;;;;;3.17;2.97;;;15.60;61.40;;;;;;5091640;28;20189;-45
2023/01/28 02:22:36;;;;;;;3.10;2.80;;;15.50;61.40;;;;;;5092623;27;20212;-45
2023/01/28 02:25:33;;;;;;;2.80;2.60;;;15.50;61.40;;;;;;5111980;27;20798;-44
2023/01/28 02:28:21;;;;;;;2.70;2.50;;;15.50;61.40;;;;;;5108717;27;20227;-45
2023/01/28 02:31:29;;;;;;;3.27;2.90;;;15.50;61.60;;;;;;5082535;28;20201;-45
2023/01/28 02:34:26;;;;;;;2.57;2.37;;;15.60;61.60;;;;;;5081857;28;20224;-45
2023/01/28 02:37:19;;;;;;;2.87;2.67;;;15.50;61.60;;;;;;5090861;28;20197;-44
2023/01/28 02:40:23;;;;;;;2.57;2.37;;;15.50;61.70;;;;;;5088069;28;20612;-44
2023/01/28 02:42:56;;;;;;;3.10;2.90;;;15.50;61.60;;;;;;5084470;28;20724;-45
2023/01/28 02:48:22;;;;;;;3.43;2.67;;;15.50;61.90;;;;;;5070890;28;20667;-45
2023/01/28 02:51:11;;;;;;;2.70;2.50;;;15.50;61.70;;;;;;5087322;28;20775;-45
2023/01/28 02:53:58;;;;;;;3.13;2.83;;;15.50;61.80;;;;;;5069261;28;20205;-45
2023/01/28 02:56:34;;;;;;;3.03;2.67;;;15.50;61.70;;;;;;5062673;28;20625;-45
2023/01/28 02:59:49;;;;;;;3.87;2.73;;;15.50;61.60;;;;;;5088212;28;20277;-45
2023/01/28 03:02:59;;;;;;;3.17;2.97;;;15.50;61.80;;;;;;5083323;28;20269;-45
2023/01/28 03:05:34;;;;;;;2.80;2.60;;;15.50;61.70;;;;;;5083246;28;20212;-45
2023/01/28 03:09:21;;;;;;;3.40;3.10;;;15.40;61.80;;;;;;5087756;28;20232;-45
2023/01/28 03:36:55;;;;;;;3.17;2.77;;;15.40;62.00;;;;;;5071604;28;20189;-47
2023/01/28 03:39:26;;;;;;;3.13;2.90;;;15.40;62.10;;;;;;5081002;28;20652;-47
2023/01/28 03:42:04;;;;;;;2.90;2.70;;;15.40;62.00;;;;;;5069807;28;20216;-47
2023/01/28 03:47:34;;;;;;;3.40;3.13;;;15.40;62.10;;;;;;5076561;28;20246;-47
2023/01/28 03:50:06;;;;;;;2.90;2.70;;;15.30;62.00;;;;;;5089175;28;20197;-47
2023/01/28 03:52:37;;;;;;;3.07;2.87;;;15.40;61.90;;;;;;5092351;28;20228;-47
2023/01/28 03:55:12;;;;;;;3.50;3.20;;;15.40;62.00;;;;;;5088931;28;20217;-47
2023/01/28 03:57:52;;;;;;;3.10;2.80;;;15.40;62.00;;;;;;5087994;28;20620;-47
2023/01/28 04:00:24;;;;;;;3.70;3.10;;;15.40;62.10;;;;;;5083623;28;20669;-47
2023/01/28 04:02:54;;;;;;;2.93;2.73;;;15.40;62.10;;;;;;5086403;28;20232;-47
2023/01/28 04:05:27;;;;;;;2.93;2.73;;;15.40;62.10;;;;;;5069079;28;20207;-47
2023/01/28 04:07:55;;;;;;;3.23;2.93;;;15.40;62.00;;;;;;5088431;28;20193;-47
2023/01/28 04:10:22;;;;;;;2.93;2.73;;;15.40;62.00;;;;;;5067072;28;20201;-47
2023/01/28 04:12:53;;;;;;;3.40;3.10;;;15.40;62.10;;;;;;5087579;28;20215;-47
2023/01/28 04:15:50;;;;;;;3.20;3.00;;;15.30;62.00;;;;;;5085375;28;20208;-46
2023/01/28 04:18:26;;;;;;;3.63;3.33;;;15.40;62.00;;;;;;5076442;28;20197;-47
2023/01/28 04:20:55;;;;;;;3.40;3.10;;;15.30;61.90;;;;;;5070596;28;20197;-46
2023/01/28 04:23:24;;;;;;;3.60;3.30;;;15.30;62.00;;;;;;5086838;28;20592;-47
2023/01/28 04:25:57;;;;;;;3.27;3.00;;;15.30;62.00;;;;;;5091227;28;20188;-46
2023/01/28 04:28:27;;;;;;;3.20;3.00;;;15.30;62.10;;;;;;5084798;27;20197;-47
2023/01/28 04:30:59;;;;;;;3.10;2.90;;;15.30;62.00;;;;;;5108100;28;20193;-47
2023/01/28 04:33:30;;;;;;;3.47;3.17;;;15.30;62.00;;;;;;5108070;28;20606;-47
2023/01/28 04:36:00;;;;;;;3.93;2.90;;;15.30;62.00;;;;;;5073376;28;20185;-47
2023/01/28 04:38:30;;;;;;;3.07;2.83;;;15.30;62.10;;;;;;5103443;28;20598;-47
2023/01/28 04:41:02;;;;;;;3.77;3.47;;;15.30;62.10;;;;;;5098057;28;20200;-47
2023/01/28 04:43:32;;;;;;;3.47;3.10;;;15.30;62.10;;;;;;5107727;28;20207;-46
2023/01/28 04:46:04;;;;;;;3.80;3.40;;;15.30;62.10;;;;;;5091956;28;20230;-47
2023/01/28 04:48:35;;;;;;;3.20;2.90;;;15.30;62.10;;;;;;5104847;28;20200;-46
2023/01/28 04:51:07;;;;;;;4.60;3.17;;;15.30;62.00;;;;;;5110278;27;20230;-47
2023/01/28 04:53:37;;;;;;;9.00;3.20;;;15.30;62.10;;;;;;5102827;28;20220;-47
2023/01/28 04:56:06;;;;;;;2.97;2.77;;;15.30;62.10;;;;;;5102325;28;20496;-46
2023/01/28 04:58:38;;;;;;;3.00;2.80;;;15.30;62.10;;;;;;5104860;28;20184;-46
2023/01/28 05:01:10;;;;;;;3.27;2.97;;;15.30;62.10;;;;;;5087881;28;20203;-47
2023/01/28 05:03:41;;;;;;;3.63;3.00;;;15.30;62.10;;;;;;5106487;28;20536;-47
2023/01/28 05:06:12;;;;;;;3.03;2.77;;;15.30;62.20;;;;;;5107740;28;20210;-47
2023/01/28 05:08:42;;;;;;;3.33;3.03;;;15.30;62.20;;;;;;5108003;28;20218;-47
2023/01/28 05:11:17;;;;;;;3.27;2.90;;;15.30;62.20;;;;;;5099443;28;20208;-47
2023/01/28 05:13:44;;;;;;;2.87;2.67;;;15.30;62.30;;;;;;5104888;28;20641;-46
2023/01/28 05:16:12;;;;;;;3.23;2.93;;;15.30;62.20;;;;;;5106657;28;20223;-47
2023/01/28 05:18:40;;;;;;;3.37;2.97;;;15.30;62.20;;;;;;5102599;28;20253;-47
2023/01/28 05:21:14;;;;;;;3.70;3.40;;;15.30;62.20;;;;;;5070354;28;20298;-46
2023/01/28 05:23:46;;;;;;;3.00;2.80;;;15.30;62.20;;;;;;5096549;28;20198;-47
2023/01/28 05:26:16;;;;;;;3.53;3.23;;;15.20;62.20;;;;;;5106917;28;20211;-46
2023/01/28 05:28:46;;;;;;;3.57;3.27;;;15.20;62.20;;;;;;5105016;28;20595;-47
2023/01/28 05:31:17;;;;;;;4.33;3.83;;;15.20;62.10;;;;;;5090140;28;20208;-47
2023/01/28 05:33:48;;;;;;;4.30;3.27;;;15.20;62.20;;;;;;5092401;28;20233;-47
2023/01/28 05:36:18;;;;;;;4.07;3.30;;;15.20;62.30;;;;;;5088211;28;20193;-46
2023/01/28 05:38:50;;;;;;;4.20;3.00;;;15.20;62.20;;;;;;5070982;28;20553;-46
2023/01/28 05:41:21;;;;;;;3.53;3.00;;;15.20;62.20;;;;;;5092108;28;20201;-47
2023/01/28 05:43:52;;;;;;;3.60;3.30;;;15.20;62.20;;;;;;5086870;28;20197;-47
2023/01/28 05:46:21;;;;;;;3.43;3.13;;;15.20;62.10;;;;;;5082431;28;20205;-47
2023/01/28 05:48:52;;;;;;;4.20;3.43;;;15.20;62.10;;;;;;5091001;28;20844;-47
2023/01/28 05:51:23;;;;;;;3.53;3.13;;;15.20;62.10;;;;;;5074301;28;20213;-47
2023/01/28 05:53:51;;;;;;;3.47;3.17;;;15.20;62.10;;;;;;5095263;28;20248;-47
2023/01/28 05:56:21;;;;;;;3.37;3.07;;;15.20;62.00;;;;;;5093128;28;20188;-47
2023/01/28 05:58:50;;;;;;;4.70;3.80;;;15.20;62.60;;;;;;5086884;28;20198;-47
2023/01/28 06:01:22;;;;;;;3.83;3.40;;;15.20;61.90;;;;;;5096634;28;20189;-46
2023/01/28 06:03:58;;;;;;;3.90;3.30;;;15.20;61.80;;;;;;5093076;28;20614;-47
2023/01/28 06:06:29;;;;;;;3.23;3.03;;;15.20;61.80;;;;;;5091807;28;20232;-46
2023/01/28 06:09:00;;;;;;;3.67;3.37;;;15.20;61.70;;;;;;5096997;28;20209;-46
2023/01/28 06:11:31;;;;;;;5.23;3.40;;;15.20;61.70;;;;;;5069016;28;20622;-46
2023/01/28 06:14:06;;;;;;;4.00;3.70;;;15.20;61.70;;;;;;5091538;28;20715;-47
2023/01/28 06:16:37;;;;;;;4.10;3.20;;;15.20;61.70;;;;;;5073907;28;20197;-47
2023/01/28 06:19:07;;;;;;;3.80;3.50;;;15.20;61.70;;;;;;5092969;28;20197;-47
2023/01/28 06:21:35;;;;;;;3.27;3.07;;;15.10;61.50;;;;;;5090158;28;20189;-47
2023/01/28 06:24:06;;;;;;;3.73;3.43;;;15.20;61.60;;;;;;5089738;28;20272;-47
2023/01/28 06:26:37;;;;;;;3.63;3.30;;;15.20;61.50;;;;;;5085116;28;20201;-46
2023/01/28 06:29:08;;;;;;;4.10;3.40;;;15.10;61.40;;;;;;5097301;27;20244;-46
2023/01/28 06:31:37;;;;;;;3.40;3.20;;;15.10;61.40;;;;;;5110009;27;20196;-46
2023/01/28 06:34:05;;;;;;;3.87;3.47;;;15.10;61.40;;;;;;5095637;27;20223;-46
2023/01/28 06:36:36;;;;;;;5.10;3.70;;;15.10;61.50;;;;;;5090572;27;20205;-46
2023/01/28 06:39:06;;;;;;;3.20;3.00;;;15.20;61.50;;;;;;5106877;28;20548;-46
2023/01/28 06:41:37;;;;;;;20.80;6.17;;;15.10;61.40;;;;;;5120108;27;20188;-46
2023/01/28 06:44:07;;;;;;;307.97;57.90;;;15.20;61.90;;;;;;5110853;28;20208;-46
2023/01/28 06:46:42;;;;;;;270.10;52.30;;;15.20;62.30;;;;;;5108758;27;20675;-46
2023/01/28 06:49:12;;;;;;;242.33;51.83;;;15.20;63.30;;;;;;5113857;27;20196;-47
2023/01/28 06:51:41;;;;;;;215.27;49.13;;;15.20;62.90;;;;;;5108503;27;20243;-47
2023/01/28 06:54:12;;;;;;;228.80;50.83;;;15.20;62.80;;;;;;5109748;28;20277;-46
2023/01/28 06:56:43;;;;;;;202.87;44.43;;;15.20;62.70;;;;;;5108441;27;20196;-47
2023/01/28 06:59:16;;;;;;;188.50;43.53;;;15.20;62.70;;;;;;5104766;27;20204;-47
2023/01/28 07:01:50;;;;;;;156.93;39.23;;;15.20;62.50;;;;;;5110403;27;20184;-46
2023/01/28 07:04:18;;;;;;;157.70;37.87;;;15.20;62.50;;;;;;5104942;27;20273;-47
2023/01/28 07:06:49;;;;;;;133.47;33.90;;;15.20;62.40;;;;;;5111971;27;20290;-47
2023/01/28 07:09:18;;;;;;;125.93;33.17;;;15.10;62.10;;;;;;5109258;27;20604;-46
2023/01/28 07:11:50;;;;;;;122.10;29.63;;;15.10;62.20;;;;;;5120636;27;20289;-44
2023/01/28 07:14:22;;;;;;;114.60;29.50;;;15.10;62.20;;;;;;5111738;27;20196;-44
2023/01/28 07:16:52;;;;;;;106.10;27.43;;;15.10;62.10;;;;;;5121725;27;20217;-47
2023/01/28 07:19:23;;;;;;;88.80;26.23;;;15.10;62.00;;;;;;5109151;28;20204;-47
2023/01/28 07:21:57;;;;;;;95.33;24.17;;;15.10;62.00;;;;;;5122797;27;20544;-46
2023/01/28 07:24:32;;;;;;;77.67;22.67;;;15.10;62.00;;;;;;5110988;27;20200;-46
2023/01/28 07:27:04;;;;;;;64.40;21.50;;;15.10;61.90;;;;;;5110365;27;20278;-45
2023/01/28 07:29:46;;;;;;;62.37;19.53;;;15.10;61.90;;;;;;5094357;28;20264;-46
2023/01/28 07:32:17;;;;;;;69.53;19.70;;;15.10;62.00;;;;;;5089401;28;20193;-46
2023/01/28 07:34:51;;;;;;;57.57;18.37;;;15.10;62.00;;;;;;5071613;28;20209;-47
2023/01/28 07:37:23;;;;;;;69.07;19.83;;;15.10;61.90;;;;;;5068249;28;20787;-46
2023/01/28 07:39:55;;;;;;;56.10;17.43;;;15.10;62.00;;;;;;5063882;28;20205;-46
2023/01/28 07:42:23;;;;;;;46.90;15.27;;;15.10;61.90;;;;;;5078420;28;20190;-46
2023/01/28 07:44:53;;;;;;;47.23;14.53;;;15.10;61.70;;;;;;5086428;28;20197;-46
2023/01/28 07:47:21;;;;;;;46.77;14.67;;;15.10;61.60;;;;;;5067428;28;20198;-46
2023/01/28 07:49:52;;;;;;;45.37;14.63;;;15.10;61.50;;;;;;5085366;28;20221;-46
2023/01/28 07:52:22;;;;;;;41.63;13.67;;;15.10;61.30;;;;;;5081412;28;20216;-46
2023/01/28 07:54:54;;;;;;;37.67;12.57;;;15.10;61.20;;;;;;5086686;28;20209;-46
2023/01/28 07:57:29;;;;;;;38.83;12.03;;;15.10;61.00;;;;;;5088312;28;20197;-46
2023/01/28 08:00:00;;;;;;;36.10;11.77;;;15.10;60.80;;;;;;5090614;28;20212;-46
2023/01/28 08:02:31;;;;;;;32.73;11.30;;;15.10;60.70;;;;;;5082300;28;20197;-47
2023/01/28 08:05:02;;;;;;;29.00;10.10;;;15.10;60.70;;;;;;5086545;28;20257;-46
2023/01/28 08:07:34;;;;;;;26.57;10.50;;;15.10;60.50;;;;;;5080725;28;20205;-46
2023/01/28 08:10:03;;;;;;;26.87;10.00;;;15.10;60.30;;;;;;5084132;28;20188;-46
2023/01/28 08:12:33;;;;;;;22.70;9.47;;;15.10;60.20;;;;;;5081336;28;20194;-46
2023/01/28 08:15:04;;;;;;;24.10;9.33;;;15.10;60.10;;;;;;5063123;28;20221;-46
2023/01/28 08:17:36;;;;;;;21.47;8.70;;;15.10;60.00;;;;;;5083187;28;20722;-46
2023/01/28 08:20:05;;;;;;;18.53;8.80;;;15.10;59.90;;;;;;5083804;28;20553;-45
2023/01/28 08:22:35;;;;;;;22.00;8.53;;;15.10;59.90;;;;;;5080347;28;20476;-45
2023/01/28 08:25:03;;;;;;;20.23;8.00;;;15.10;59.70;;;;;;5078744;28;20204;-46
2023/01/28 08:27:34;;;;;;;17.27;7.63;;;15.10;59.60;;;;;;5065219;28;20647;-45
2023/01/28 08:30:07;;;;;;;14.00;7.10;;;15.10;59.60;;;;;;5084083;28;20245;-45
2023/01/28 08:32:42;;;;;;;15.70;6.43;;;15.10;59.40;;;;;;5066335;28;20222;-45
2023/01/28 08:35:14;;;;;;;13.60;6.27;;;15.00;59.30;;;;;;5084979;28;20224;-46
2023/01/28 08:37:47;;;;;;;13.83;6.50;;;15.00;59.30;;;;;;5085307;28;20204;-47
2023/01/28 08:40:16;;;;;;;12.00;5.83;;;15.00;59.20;;;;;;5080308;28;20581;-46
2023/01/28 08:42:51;;;;;;;15.17;5.90;;;15.00;59.20;;;;;;5066446;28;20686;-45
2023/01/28 08:45:26;;;;;;;10.93;5.87;;;15.00;59.00;;;;;;5068687;28;20201;-46
2023/01/28 08:48:05;;;;;;;10.20;5.80;;;15.00;59.00;;;;;;5068892;28;20192;-45
2023/01/28 08:50:37;;;;;;;9.80;5.60;;;15.00;59.00;;;;;;5067288;28;20417;-46
2023/01/28 08:53:19;;;;;;;9.13;5.37;;;15.00;59.10;;;;;;5067553;28;20646;-46
2023/01/28 08:55:47;;;;;;;13.07;5.20;;;15.00;58.90;;;;;;5052387;28;20214;-47
2023/01/28 08:58:17;;;;;;;10.60;5.60;;;15.00;58.90;;;;;;5084442;28;20203;-45
2023/01/28 09:00:49;;;;;;;19.37;7.03;;;15.00;59.00;;;;;;5070538;28;20185;-46
2023/01/28 09:03:18;;;;;;;12.80;6.07;;;15.00;59.30;;;;;;5065710;28;20266;-47
2023/01/28 09:05:48;;;;;;;17.53;6.57;;;15.00;59.30;;;;;;5094302;28;20606;-46
2023/01/28 09:08:18;;;;;;;17.97;6.90;;;15.00;59.20;;;;;;5088692;28;20209;-46
2023/01/28 09:11:02;;;;;;;14.73;5.93;;;15.00;59.20;;;;;;5089285;28;20539;-46
2023/01/28 09:13:31;;;;;;;19.57;6.73;;;15.00;59.20;;;;;;5090554;28;20223;-46
2023/01/28 09:16:03;;;;;;;15.30;6.70;;;15.00;59.30;;;;;;5071381;28;20635;-46
2023/01/28 09:18:34;;;;;;;14.80;5.80;;;15.00;59.20;;;;;;5071932;28;20201;-46
2023/01/28 09:21:07;;;;;;;17.00;5.70;;;15.00;59.20;;;;;;5073008;28;20212;-46
2023/01/28 09:23:41;;;;;;;12.13;6.30;;;15.00;59.20;;;;;;5091967;28;20668;-46
2023/01/28 09:26:09;;;;;;;11.43;5.17;;;15.00;59.20;;;;;;5098938;28;20207;-46
2023/01/28 09:28:40;;;;;;;9.40;5.40;;;15.00;59.10;;;;;;5093466;28;20197;-46
2023/01/28 09:31:15;;;;;;;13.30;5.20;;;15.00;59.10;;;;;;5115776;27;20223;-46
2023/01/28 09:33:47;;;;;;;9.27;5.47;;;15.00;59.20;;;;;;5109771;28;20249;-46
2023/01/28 09:36:14;;;;;;;9.23;5.23;;;15.00;59.10;;;;;;5080849;28;20298;-46
2023/01/28 09:38:44;;;;;;;10.47;4.90;;;15.00;59.10;;;;;;5086011;28;20343;-45
2023/01/28 09:41:54;;;;;;;9.77;5.30;;;15.00;59.10;;;;;;5104355;28;20210;-46
2023/01/28 09:44:43;;;;;;;9.63;5.30;;;15.00;59.10;;;;;;5085203;27;20291;-45
2023/01/28 09:47:50;;;;;;;9.47;5.10;;;15.10;59.10;;;;;;5110027;28;20279;-45
2023/01/28 09:50:49;;;;;;;10.50;5.53;;;15.00;59.10;;;;;;5110389;28;20620;-45
2023/01/28 09:53:32;;;;;;;10.93;5.00;;;15.00;59.10;;;;;;5093022;28;20184;-48
2023/01/28 09:56:13;;;;;;;10.10;4.87;;;15.00;59.20;;;;;;5111809;27;20261;-47
2023/01/28 09:58:42;;;;;;;8.73;4.90;;;15.00;59.20;;;;;;5095382;28;20240;-47
2023/01/28 10:01:41;;;;;;;7.03;4.87;;;15.00;59.30;;;;;;5099114;27;20259;-47
2023/01/28 10:04:26;;;;;;;6.97;4.37;;;15.00;59.10;;;;;;5106120;28;20575;-47
2023/01/28 10:07:24;;;;;;;6.93;4.70;;;15.00;59.20;;;;;;5107586;28;20192;-47
2023/01/28 10:10:12;;;;;;;6.80;4.50;;;15.00;59.80;;;;;;5110454;28;20195;-47
2023/01/28 10:12:54;;;;;;;6.77;4.73;;;15.00;59.30;;;;;;5098230;28;20189;-46
2023/01/28 10:15:55;;;;;;;6.10;4.23;;;15.00;59.20;;;;;;5109168;28;20348;-46
2023/01/28 10:18:57;;;;;;;5.20;4.40;;;15.00;59.20;;;;;;5109728;27;20180;-46
2023/01/28 10:21:35;;;;;;;8.50;4.63;;;15.00;59.20;;;;;;5095279;28;20191;-46
2023/01/28 10:24:10;;;;;;;6.60;4.17;;;15.00;59.20;;;;;;5089693;28;20313;-46
2023/01/28 10:26:43;;;;;;;5.30;4.40;;;15.00;59.20;;;;;;5089722;28;20196;-46
2023/01/28 10:29:17;;;;;;;8.27;4.57;;;15.00;59.20;;;;;;5106168;28;20220;-46
2023/01/28 10:32:19;;;;;;;5.80;4.30;;;15.00;59.20;;;;;;5108341;28;20195;-46
2023/01/28 10:34:54;;;;;;;6.73;4.37;;;15.00;59.20;;;;;;5100985;28;20206;-46
2023/01/28 10:37:24;;;;;;;5.70;4.53;;;15.00;59.20;;;;;;5091006;28;20200;-46
2023/01/28 10:39:58;;;;;;;6.83;4.13;;;15.00;59.20;;;;;;5105882;28;20200;-48
2023/01/28 10:42:37;;;;;;;6.57;4.27;;;15.00;59.20;;;;;;5108354;27;20192;-46
2023/01/28 10:45:25;;;;;;;4.90;4.17;;;15.00;59.30;;;;;;5107281;27;20218;-46
2023/01/28 10:48:18;;;;;;;6.17;4.70;;;15.00;59.20;;;;;;5107329;28;20251;-46
2023/01/28 10:50:55;;;;;;;6.03;4.30;;;15.00;59.30;;;;;;5101529;27;20208;-45
2023/01/28 10:53:46;;;;;;;4.83;4.33;;;14.90;59.20;;;;;;5091824;28;20196;-47
2023/01/28 10:56:24;;;;;;;4.80;3.93;;;15.00;59.40;;;;;;5084525;28;20707;-45
2023/01/28 10:58:59;;;;;;;4.47;4.03;;;14.90;59.30;;;;;;5110311;28;20188;-47
2023/01/28 11:01:51;;;;;;;6.13;4.57;;;15.00;59.30;;;;;;5117702;27;20567;-45
2023/01/28 11:04:30;;;;;;;5.73;4.43;;;15.00;59.30;;;;;;5101464;28;20905;-47
2023/01/28 11:07:17;;;;;;;3.93;3.53;;;15.00;59.30;;;;;;5104769;27;20622;-47
2023/01/28 11:09:50;;;;;;;4.70;3.90;;;15.00;59.30;;;;;;5095764;27;20544;-47
2023/01/28 11:12:29;;;;;;;6.07;4.60;;;15.00;59.20;;;;;;5086529;28;20200;-47
2023/01/28 11:15:03;;;;;;;5.20;4.70;;;15.00;59.30;;;;;;5087544;28;20230;-47
2023/01/28 11:17:37;;;;;;;4.97;4.40;;;15.00;59.20;;;;;;5070225;28;20289;-46
2023/01/28 11:20:24;;;;;;;4.40;3.93;;;15.00;59.30;;;;;;5075476;28;20207;-46
2023/01/28 11:23:01;;;;;;;4.40;4.00;;;15.00;59.20;;;;;;5086247;28;20185;-46
2023/01/28 11:25:37;;;;;;;4.20;3.80;;;15.00;59.20;;;;;;5104581;28;20219;-46
2023/01/28 11:28:19;;;;;;;4.50;4.10;;;15.00;59.20;;;;;;5084638;28;20215;-46
2023/01/28 11:30:57;;;;;;;4.40;4.00;;;15.00;59.10;;;;;;5082553;28;20229;-46
2023/01/28 11:34:04;;;;;;;4.40;4.00;;;15.00;59.20;;;;;;5074475;28;20193;-47
2023/01/28 11:36:34;;;;;;;4.33;3.90;;;15.00;59.30;;;;;;4988197;28;20254;-47
2023/01/28 11:39:27;;;;;;;4.37;3.97;;;15.00;59.30;;;;;;4985645;28;20243;-47
2023/01/28 11:42:19;;;;;;;4.77;4.27;;;15.00;59.30;;;;;;4990209;28;20222;-46
2023/01/28 11:44:49;;;;;;;13.80;3.77;;;15.00;59.30;;;;;;4985885;28;20212;-46
2023/01/28 11:47:44;;;;;;;4.93;4.53;;;14.90;59.30;;;;;;4985772;28;20780;-46
2023/01/28 11:50:33;;;;;;;4.17;3.77;;;15.00;59.30;;;;;;5010262;28;20208;-46
2023/01/28 11:53:14;;;;;;;4.20;3.80;;;15.00;59.30;;;;;;5077423;28;20631;-46
2023/01/28 11:56:22;;;;;;;5.50;3.67;;;15.00;59.30;;;;;;5089645;28;20224;-46
2023/01/28 11:59:10;;;;;;;6.10;3.73;;;15.00;59.20;;;;;;5077506;28;20197;-45
2023/01/28 12:02:19;;;;;;;4.47;3.73;;;15.00;59.20;;;;;;5087665;28;20184;-46
2023/01/28 12:05:02;;;;;;;4.90;3.50;;;15.00;59.20;;;;;;5085608;28;20217;-46
2023/01/28 12:08:15;;;;;;;5.17;3.20;;;15.00;59.10;;;;;;5087201;28;20543;-46
2023/01/28 12:14:38;;;;;;;4.03;3.70;;;15.00;59.00;;;;;;5084759;28;20728;-47
2023/01/28 12:17:41;;;;;;;4.27;3.87;;;15.00;59.00;;;;;;5086249;28;20205;-46
2023/01/28 12:20:41;;;;;;;4.30;3.90;;;15.00;59.00;;;;;;5088410;28;20189;-45
2023/01/28 12:23:47;;;;;;;4.37;3.37;;;15.00;59.00;;;;;;5085942;28;20181;-46
2023/01/28 12:26:35;;;;;;;4.43;4.03;;;15.00;58.90;;;;;;5086509;28;20193;-47
2023/01/28 12:29:24;;;;;;;6.00;4.33;;;15.00;58.90;;;;;;5087756;28;20228;-47
2023/01/28 12:32:38;;;;;;;4.97;4.10;;;15.00;58.90;;;;;;5084002;28;20200;-47
2023/01/28 12:35:49;;;;;;;4.83;3.97;;;15.00;58.80;;;;;;5068917;28;20208;-46
2023/01/28 12:38:32;;;;;;;4.90;4.40;;;15.00;58.90;;;;;;5080543;28;20649;-48
2023/01/28 12:41:39;;;;;;;4.20;3.80;;;15.00;58.80;;;;;;5085970;28;20268;-46
2023/01/28 12:44:28;;;;;;;4.70;3.87;;;15.00;58.70;;;;;;5034120;28;20757;-46
2023/01/28 12:47:06;;;;;;;5.33;4.10;;;15.00;58.70;;;;;;5066375;28;20574;-46
2023/01/28 12:49:35;;;;;;;5.23;3.73;;;15.00;58.50;;;;;;5048757;28;20196;-45
2023/01/28 12:52:19;;;;;;;3.80;3.50;;;15.00;58.50;;;;;;5068345;28;20606;-46
2023/01/28 12:55:22;;;;;;;4.60;3.80;;;15.00;58.50;;;;;;5090049;28;20197;-46
2023/01/28 12:57:52;;;;;;;4.03;3.40;;;15.00;58.50;;;;;;5081935;28;20255;-46
2023/01/28 13:00:43;;;;;;;4.60;4.20;;;15.00;58.40;;;;;;5083936;28;20232;-46
2023/01/28 13:03:19;;;;;;;4.00;3.60;;;15.00;58.40;;;;;;5086065;28;20295;-46
2023/01/28 13:06:34;;;;;;;4.20;3.50;;;15.00;58.40;;;;;;5091420;28;20257;-46
2023/01/28 13:09:17;;;;;;;4.60;3.53;;;15.00;58.40;;;;;;5058586;28;20242;-46
2023/01/28 13:11:51;;;;;;;3.90;3.10;;;15.00;58.40;;;;;;5073425;28;20181;-47
2023/01/28 13:14:29;;;;;;;3.30;3.00;;;15.00;58.50;;;;;;5041033;28;20205;-45
2023/01/28 13:17:31;;;;;;;3.77;3.23;;;15.00;58.50;;;;;;5063437;28;20234;-47
2023/01/28 13:19:59;;;;;;;3.70;3.30;;;15.00;58.40;;;;;;5083311;28;20262;-47
2023/01/28 13:22:34;;;;;;;3.90;2.90;;;15.00;58.50;;;;;;5081742;28;20209;-47
2023/01/28 13:25:26;;;;;;;3.47;3.17;;;15.00;58.50;;;;;;5053933;28;20401;-47
2023/01/28 13:27:59;;;;;;;3.63;3.20;;;15.00;58.50;;;;;;5091486;28;20612;-47
2023/01/28 13:30:33;;;;;;;3.50;2.73;;;15.10;58.50;;;;;;5086948;28;20244;-47
2023/01/28 13:33:39;;;;;;;2.90;2.57;;;15.00;58.40;;;;;;5085895;28;20252;-46
2023/01/28 13:36:19;;;;;;;4.07;2.53;;;15.00;58.40;;;;;;5084090;28;20651;-47
2023/01/28 13:39:10;;;;;;;3.50;2.63;;;15.10;58.50;;;;;;5085272;28;20270;-47
2023/01/28 13:41:59;;;;;;;3.47;3.03;;;15.00;58.40;;;;;;5076289;28;20224;-46
2023/01/28 13:44:34;;;;;;;4.23;2.70;;;15.00;58.50;;;;;;5080019;28;20243;-47
2023/01/28 13:47:17;;;;;;;3.10;2.80;;;15.00;58.50;;;;;;5090271;28;20197;-46
2023/01/28 13:50:07;;;;;;;3.90;3.03;;;15.00;58.40;;;;;;5084100;28;20196;-46
2023/01/28 13:53:03;;;;;;;3.30;3.00;;;15.10;58.30;;;;;;5083725;28;20228;-46
2023/01/28 13:55:44;;;;;;;3.57;3.07;;;15.00;58.20;;;;;;5074335;28;20202;-46
2023/01/28 13:58:47;;;;;;;2.73;2.33;;;15.10;58.30;;;;;;5078989;28;20201;-45
2023/01/28 14:01:54;;;;;;;3.53;3.17;;;15.00;58.20;;;;;;5090832;28;20290;-47
2023/01/28 14:04:44;;;;;;;3.77;2.97;;;15.10;58.20;;;;;;5083206;28;20626;-47
2023/01/28 14:07:39;;;;;;;3.13;2.83;;;15.10;58.30;;;;;;5080904;28;20208;-46
2023/01/28 14:10:43;;;;;;;3.70;2.60;;;15.10;58.40;;;;;;5089741;28;20228;-47
2023/01/28 14:13:36;;;;;;;3.30;2.87;;;15.10;58.40;;;;;;5087061;28;20490;-45